Time;durP1;ratioP1;P1;durP2;ratioP2;P2;SDS_P1;SDS_P2;PMS_P1;PMS_P2;Temp;Humidity;BMP_temperature;BMP_pressure;BME280_temperature;BME280_humidity;BME280_pressure;Samples;Min_cycle;Max_cycle;Signal;HPM_P1;HPM_P2
2023/08/11 00:02:08;;;;;;;0.00;0.00;;;;;;;19.64;63.52;102087.53;5122326;28;20023;-82
2023/08/11 00:04:34;;;;;;;0.05;0.05;;;;;;;19.62;63.39;102092.09;5138424;28;20016;-82
2023/08/11 00:07:02;;;;;;;0.10;0.10;;;;;;;19.62;63.63;102093.91;5133858;28;20040;-82
2023/08/11 00:09:29;;;;;;;0.00;0.00;;;;;;;19.58;63.54;102084.19;5124923;28;20043;-82
2023/08/11 00:11:55;;;;;;;0.00;0.00;;;;;;;19.54;63.70;102086.13;5121749;28;20054;-82
2023/08/11 00:14:21;;;;;;;0.00;0.00;;;;;;;19.54;63.47;102087.00;5123065;28;20098;-82
2023/08/11 00:16:47;;;;;;;0.00;0.00;;;;;;;19.53;63.56;102089.75;5128934;28;20032;-82
2023/08/11 00:19:13;;;;;;;0.00;0.00;;;;;;;19.53;63.72;102101.38;5128009;28;20055;-82
2023/08/11 00:21:39;;;;;;;0.05;0.05;;;;;;;19.51;64.04;102092.47;5138694;28;20046;-82
2023/08/11 00:24:05;;;;;;;0.00;0.00;;;;;;;19.49;63.82;102097.06;5138173;28;20031;-82
2023/08/11 00:26:31;;;;;;;0.47;0.47;;;;;;;19.48;63.81;102089.06;5139555;28;20028;-82
2023/08/11 00:28:58;;;;;;;0.00;0.00;;;;;;;19.47;64.00;102088.16;5136846;28;20038;-82
2023/08/11 00:31:24;;;;;;;0.00;0.00;;;;;;;19.47;63.71;102093.53;5124163;28;20024;-82
2023/08/11 00:33:51;;;;;;;0.10;0.10;;;;;;;19.46;63.66;102083.72;5124148;28;20032;-82
2023/08/11 00:36:18;;;;;;;0.10;0.10;;;;;;;19.47;64.08;102081.94;5122676;28;20069;-82
2023/08/11 00:38:44;;;;;;;1.55;1.35;;;;;;;19.47;63.56;102079.25;5123936;28;20055;-82
2023/08/11 00:41:11;;;;;;;0.00;0.00;;;;;;;19.45;63.63;102070.34;5130366;28;20028;-82
2023/08/11 00:43:37;;;;;;;0.20;0.20;;;;;;;19.44;63.81;102068.59;5137011;28;20043;-82
2023/08/11 00:46:12;;;;;;;0.17;0.17;;;;;;;19.46;63.92;102070.28;5137548;28;20020;-81
2023/08/11 00:48:40;;;;;;;0.10;0.10;;;;;;;19.41;63.77;102066.91;5136830;28;20037;-82
2023/08/11 00:51:07;;;;;;;0.35;0.35;;;;;;;19.36;63.92;102061.69;5130658;28;20030;-82
2023/08/11 00:53:34;;;;;;;0.17;0.17;;;;;;;19.33;63.72;102051.06;5117028;28;20070;-82
2023/08/11 00:56:02;;;;;;;0.25;0.25;;;;;;;19.29;63.84;102054.81;5116406;28;20127;-82
2023/08/11 00:58:30;;;;;;;0.10;0.10;;;;;;;19.25;63.92;102053.16;5116102;28;20031;-82
2023/08/11 01:00:57;;;;;;;0.10;0.10;;;;;;;19.23;63.75;102049.66;5117015;28;20055;-82
2023/08/11 01:03:24;;;;;;;0.10;0.10;;;;;;;19.22;63.92;102045.22;5116241;28;20027;-82
2023/08/11 01:06:03;;;;;;;0.10;0.10;;;;;;;19.24;64.08;102041.53;5119498;28;20371;-82
2023/08/11 01:08:38;;;;;;;0.00;0.00;;;;;;;19.24;64.03;102046.91;5113998;28;20027;-82
2023/08/11 01:11:21;;;;;;;0.10;0.10;;;;;;;19.23;64.01;102039.78;5118294;28;20282;-82
2023/08/11 01:13:53;;;;;;;0.10;0.10;;;;;;;19.24;64.27;102041.53;5116363;28;20059;-83
2023/08/11 01:16:23;;;;;;;0.10;0.10;;;;;;;19.20;64.02;102041.69;5118693;28;20042;-83
2023/08/11 01:18:50;;;;;;;0.08;0.08;;;;;;;19.17;63.98;102041.84;5119693;28;20028;-82
2023/08/11 01:21:17;;;;;;;0.20;0.20;;;;;;;19.13;64.20;102051.81;5118481;28;20023;-83
2023/08/11 01:23:44;;;;;;;0.10;0.10;;;;;;;19.10;64.42;102057.28;5116918;28;20055;-82
2023/08/11 01:26:11;;;;;;;0.10;0.10;;;;;;;19.08;64.37;102041.22;5117744;28;20069;-82
2023/08/11 01:28:37;;;;;;;0.10;0.10;;;;;;;19.06;64.68;102056.50;5117865;28;20057;-82
2023/08/11 01:31:03;;;;;;;0.17;0.17;;;;;;;19.03;64.54;102051.28;5118191;28;20040;-82
2023/08/11 01:33:30;;;;;;;0.10;0.10;;;;;;;19.04;64.49;102052.13;5118053;28;20024;-83
2023/08/11 01:35:56;;;;;;;0.30;0.30;;;;;;;18.99;64.56;102049.63;5119544;28;20454;-82
2023/08/11 01:38:22;;;;;;;0.10;0.10;;;;;;;18.97;64.66;102042.56;5115289;28;20089;-82
2023/08/11 01:40:48;;;;;;;0.10;0.10;;;;;;;18.95;64.72;102033.69;5118176;28;20057;-82
2023/08/11 01:43:15;;;;;;;0.50;0.50;;;;;;;18.94;64.87;102038.19;5114978;28;20232;-82
2023/08/11 01:45:43;;;;;;;0.00;0.00;;;;;;;18.92;64.55;102038.22;5116579;28;20027;-82
2023/08/11 01:48:11;;;;;;;0.10;0.10;;;;;;;18.92;64.67;102042.72;5116714;28;20034;-82
2023/08/11 01:50:38;;;;;;;0.00;0.00;;;;;;;18.93;64.73;102033.75;5115870;28;20031;-83
2023/08/11 01:53:04;;;;;;;0.08;0.08;;;;;;;18.93;64.84;102031.06;5113934;28;20159;-82
2023/08/11 01:55:30;;;;;;;0.10;0.10;;;;;;;18.92;64.33;102035.53;5115582;28;20627;-82
2023/08/11 01:57:57;;;;;;;2.28;1.27;;;;;;;18.93;64.60;102036.44;5117024;28;20399;-82
2023/08/11 02:00:23;;;;;;;0.00;0.00;;;;;;;18.91;64.86;102036.47;5115199;28;20114;-82
2023/08/11 02:02:49;;;;;;;0.20;0.20;;;;;;;18.90;64.84;102034.72;5116737;28;20035;-82
2023/08/11 02:05:15;;;;;;;0.00;0.00;;;;;;;18.88;64.73;102033.00;5115612;28;20035;-82
2023/08/11 02:07:43;;;;;;;0.10;0.10;;;;;;;18.86;64.67;102034.84;5116030;28;20035;-82
2023/08/11 02:10:11;;;;;;;0.00;0.00;;;;;;;18.84;64.82;102034.03;5114084;28;20096;-82
2023/08/11 02:12:39;;;;;;;0.10;0.10;;;;;;;18.83;64.98;102040.31;5111778;28;20032;-82
2023/08/11 02:15:06;;;;;;;0.30;0.30;;;;;;;18.80;64.92;102037.75;5111307;28;20032;-82
2023/08/11 02:17:32;;;;;;;0.10;0.10;;;;;;;18.78;64.88;102047.66;5115418;28;20043;-82
2023/08/11 02:20:00;;;;;;;0.10;0.10;;;;;;;18.75;64.99;102049.56;5115252;28;20031;-82
2023/08/11 02:22:26;;;;;;;0.10;0.10;;;;;;;18.72;65.11;102044.28;5113707;28;20045;-82
2023/08/11 02:24:52;;;;;;;0.00;0.00;;;;;;;18.72;64.88;102038.91;5115521;28;20023;-82
2023/08/11 02:27:18;;;;;;;1.10;0.40;;;;;;;18.70;65.16;102051.50;5114627;28;20038;-82
2023/08/11 02:29:45;;;;;;;0.10;0.10;;;;;;;18.69;65.09;102044.41;5114820;28;20072;-82
2023/08/11 02:32:11;;;;;;;0.10;0.10;;;;;;;18.69;65.17;102039.03;5115025;28;20035;-82
2023/08/11 02:34:38;;;;;;;0.05;0.05;;;;;;;18.68;65.30;102041.75;5114420;28;20027;-82
2023/08/11 02:37:04;;;;;;;0.00;0.00;;;;;;;18.68;65.29;102037.28;5110971;28;20062;-82
2023/08/11 02:39:30;;;;;;;2.17;0.52;;;;;;;18.66;65.28;102043.63;5114220;28;20027;-82
2023/08/11 02:41:56;;;;;;;0.03;0.03;;;;;;;18.65;65.21;102036.50;5115754;28;20032;-82
2023/08/11 02:44:22;;;;;;;0.10;0.10;;;;;;;18.63;65.33;102028.50;5111768;28;20043;-82
2023/08/11 02:46:49;;;;;;;0.10;0.10;;;;;;;18.62;65.42;102026.75;5113409;28;20464;-82
2023/08/11 02:49:15;;;;;;;1.17;0.75;;;;;;;18.60;65.46;102020.53;5113637;28;20062;-82
2023/08/11 02:51:41;;;;;;;0.00;0.00;;;;;;;18.60;65.47;102025.91;5110802;28;20047;-82
2023/08/11 02:54:07;;;;;;;0.28;0.28;;;;;;;18.58;65.50;102019.75;5113302;28;20037;-82
2023/08/11 02:56:33;;;;;;;0.10;0.10;;;;;;;18.56;65.57;102026.97;5114446;28;20032;-82
2023/08/11 02:58:59;;;;;;;0.05;0.05;;;;;;;18.54;65.54;102026.13;5113071;28;20032;-82
2023/08/11 03:01:25;;;;;;;0.00;0.00;;;;;;;18.54;65.42;102023.44;5111618;28;20032;-82
2023/08/11 03:03:52;;;;;;;0.10;0.10;;;;;;;18.53;65.68;102027.03;5113304;28;20039;-82
2023/08/11 03:06:18;;;;;;;0.00;0.00;;;;;;;18.52;65.74;102019.94;5116134;28;20035;-82
2023/08/11 03:08:44;;;;;;;1.48;0.88;;;;;;;18.51;65.66;102026.25;5133769;28;20070;-82
2023/08/11 03:11:10;;;;;;;0.10;0.10;;;;;;;18.51;65.65;102020.88;5127917;28;20036;-82
2023/08/11 03:13:37;;;;;;;0.10;0.10;;;;;;;18.52;65.61;102022.63;5119407;28;20043;-82
2023/08/11 03:16:03;;;;;;;0.00;0.00;;;;;;;18.52;65.92;102019.94;5118063;28;20034;-82
2023/08/11 03:18:30;;;;;;;0.15;0.15;;;;;;;18.50;65.84;102011.06;5115126;28;20032;-82
2023/08/11 03:20:56;;;;;;;0.38;0.38;;;;;;;18.49;65.89;102006.63;5117170;28;20035;-82
2023/08/11 03:23:22;;;;;;;0.00;0.00;;;;;;;18.48;65.82;102012.91;5120609;28;20115;-82
2023/08/11 03:25:49;;;;;;;0.10;0.10;;;;;;;18.48;65.93;102012.91;5118491;28;20023;-82
2023/08/11 03:28:15;;;;;;;0.00;0.00;;;;;;;18.47;66.07;102016.53;5116695;28;20410;-82
2023/08/11 03:30:41;;;;;;;0.10;0.10;;;;;;;18.47;66.28;102019.22;5115656;28;20112;-82
2023/08/11 03:33:07;;;;;;;0.00;0.00;;;;;;;18.45;65.91;102005.84;5115343;28;20035;-82
2023/08/11 03:35:33;;;;;;;0.40;0.40;;;;;;;18.46;65.98;102009.44;5114826;28;20027;-82
2023/08/11 03:38:00;;;;;;;0.88;0.88;;;;;;;18.46;65.86;102004.94;5117390;28;20031;-81
2023/08/11 03:40:26;;;;;;;0.32;0.25;;;;;;;18.45;66.04;102003.16;5117427;28;20028;-82
2023/08/11 03:42:53;;;;;;;0.10;0.10;;;;;;;18.46;66.14;102004.94;5117189;28;20034;-81
2023/08/11 03:45:19;;;;;;;0.00;0.00;;;;;;;18.47;66.07;102005.78;5116762;28;20019;-82
2023/08/11 03:47:45;;;;;;;0.10;0.10;;;;;;;18.48;66.11;102012.91;5108812;27;20031;-81
2023/08/11 03:50:12;;;;;;;0.10;0.10;;;;;;;18.49;65.98;102009.31;5115695;28;20038;-82
2023/08/11 03:52:39;;;;;;;0.20;0.20;;;;;;;18.49;66.14;102002.16;5117393;28;20031;-82
2023/08/11 03:55:09;;;;;;;0.00;0.00;;;;;;;18.50;65.99;102005.69;5117081;28;20043;-82
2023/08/11 03:57:37;;;;;;;0.45;0.45;;;;;;;18.51;66.16;102005.63;5118361;28;20024;-82
2023/08/11 04:00:05;;;;;;;0.10;0.10;;;;;;;18.53;66.14;101997.53;5116849;28;20395;-82
2023/08/11 04:02:32;;;;;;;0.00;0.00;;;;;;;18.52;66.04;101998.47;5115633;28;20024;-82
2023/08/11 04:04:58;;;;;;;0.20;0.20;;;;;;;18.53;66.04;101994.84;5114186;28;20031;-82
2023/08/11 04:07:24;;;;;;;0.13;0.13;;;;;;;18.53;66.00;101994.84;5115986;28;20038;-82
2023/08/11 04:09:50;;;;;;;0.13;0.13;;;;;;;18.53;66.04;101987.69;5113904;28;20101;-81
2023/08/11 04:12:16;;;;;;;1.23;0.40;;;;;;;18.53;66.26;101987.69;5114239;28;20057;-82
2023/08/11 04:14:42;;;;;;;0.10;0.10;;;;;;;18.54;66.22;101977.81;5115402;28;20027;-82
2023/08/11 04:17:08;;;;;;;0.10;0.10;;;;;;;18.51;66.03;101978.81;5116291;28;20152;-82
2023/08/11 04:19:34;;;;;;;0.10;0.10;;;;;;;18.51;66.34;101983.31;5115356;28;20110;-82
2023/08/11 04:22:00;;;;;;;0.10;0.10;;;;;;;18.49;66.15;101971.72;5117671;28;20027;-82
2023/08/11 04:24:26;;;;;;;0.10;0.10;;;;;;;18.50;66.45;101968.13;5118084;28;20087;-82
2023/08/11 04:26:52;;;;;;;0.20;0.20;;;;;;;18.49;66.34;101969.06;5117125;28;20028;-82
2023/08/11 04:29:18;;;;;;;0.65;0.65;;;;;;;18.50;66.24;101957.38;5114692;28;20016;-82
2023/08/11 04:31:44;;;;;;;0.00;0.00;;;;;;;18.48;66.23;101960.13;5116030;28;20044;-82
2023/08/11 04:34:10;;;;;;;0.40;0.40;;;;;;;18.50;66.19;101962.75;5114355;28;20512;-82
2023/08/11 04:36:37;;;;;;;0.08;0.08;;;;;;;18.50;66.04;101952.03;5117008;28;20035;-82
2023/08/11 04:39:03;;;;;;;0.10;0.10;;;;;;;18.49;65.88;101952.94;5117609;28;20110;-82
2023/08/11 04:41:29;;;;;;;0.00;0.00;;;;;;;18.48;66.13;101956.56;5118445;28;20100;-83
2023/08/11 04:43:55;;;;;;;0.00;0.00;;;;;;;18.47;66.06;101963.75;5115670;28;20043;-82
2023/08/11 04:46:21;;;;;;;0.10;0.10;;;;;;;18.48;66.01;101959.25;5117608;28;20038;-82
2023/08/11 04:48:47;;;;;;;0.10;0.10;;;;;;;18.51;66.14;101959.16;5115212;28;20043;-82
2023/08/11 04:51:13;;;;;;;0.03;0.03;;;;;;;18.52;66.29;101960.91;5122832;28;20077;-82
2023/08/11 04:53:39;;;;;;;0.10;0.10;;;;;;;18.52;66.34;101952.84;5121062;28;20038;-82
2023/08/11 04:56:06;;;;;;;0.10;0.10;;;;;;;18.53;66.29;101954.59;5121534;28;20041;-83
2023/08/11 04:58:33;;;;;;;3.35;0.65;;;;;;;18.55;66.48;101944.69;5118709;28;20038;-82
2023/08/11 05:01:03;;;;;;;0.63;0.63;;;;;;;18.57;66.31;101940.16;5118643;28;20030;-82
2023/08/11 05:03:29;;;;;;;0.10;0.10;;;;;;;18.59;66.11;101944.53;5112262;28;20062;-82
2023/08/11 05:05:55;;;;;;;0.10;0.10;;;;;;;18.61;66.70;101944.47;5116504;28;20038;-83
2023/08/11 05:08:22;;;;;;;2.00;1.25;;;;;;;18.61;66.16;101946.28;5117467;28;20035;-83
2023/08/11 05:10:48;;;;;;;0.10;0.10;;;;;;;18.62;66.21;101946.22;5118618;28;20031;-83
2023/08/11 05:13:14;;;;;;;0.10;0.10;;;;;;;18.64;66.22;101952.41;5117057;28;20113;-82
2023/08/11 05:15:40;;;;;;;0.43;0.43;;;;;;;18.67;65.93;101954.97;5117092;28;20212;-83
2023/08/11 05:18:07;;;;;;;0.00;0.00;;;;;;;18.71;66.32;101953.91;5118123;28;20034;-82
2023/08/11 05:20:36;;;;;;;0.00;0.00;;;;;;;18.72;66.22;101953.00;5115818;28;20043;-82
2023/08/11 05:23:03;;;;;;;0.32;0.30;;;;;;;18.75;66.19;101946.63;5118105;28;20035;-81
2023/08/11 05:25:29;;;;;;;0.13;0.13;;;;;;;18.76;66.53;101943.88;5117148;28;20072;-81
2023/08/11 05:27:55;;;;;;;0.10;0.10;;;;;;;18.79;66.17;101942.03;5118342;28;20116;-81
2023/08/11 05:30:26;;;;;;;0.00;0.00;;;;;;;18.83;66.23;101949.03;5116397;28;20032;-81
2023/08/11 05:32:53;;;;;;;0.15;0.15;;;;;;;18.84;66.06;101946.31;5118426;28;20368;-81
2023/08/11 05:35:19;;;;;;;0.10;0.10;;;;;;;18.88;66.25;101949.75;5113884;28;20032;-82
2023/08/11 05:37:47;;;;;;;0.10;0.10;;;;;;;18.91;66.04;101955.03;5118119;28;20027;-81
2023/08/11 05:40:13;;;;;;;0.30;0.30;;;;;;;18.95;65.85;101945.91;5116116;28;20032;-82
2023/08/11 05:42:39;;;;;;;0.10;0.10;;;;;;;18.96;66.19;101952.19;5115692;28;20564;-81
2023/08/11 05:45:07;;;;;;;0.90;0.90;;;;;;;19.01;65.84;101948.38;5112807;28;20154;-81
2023/08/11 05:47:33;;;;;;;0.08;0.08;;;;;;;19.04;66.24;101950.97;5116280;28;20027;-81
2023/08/11 05:49:59;;;;;;;0.08;0.08;;;;;;;19.08;66.55;101955.28;5115660;28;20035;-81
2023/08/11 05:52:25;;;;;;;0.30;0.28;;;;;;;19.14;66.38;101953.28;5115603;28;20508;-81
2023/08/11 05:54:51;;;;;;;0.28;0.28;;;;;;;19.19;66.19;101959.34;5112305;28;20074;-81
2023/08/11 05:57:18;;;;;;;0.10;0.10;;;;;;;19.24;66.26;101962.75;5117043;28;20390;-81
2023/08/11 05:59:44;;;;;;;0.10;0.10;;;;;;;19.29;66.08;101960.75;5116641;28;20024;-81
2023/08/11 06:02:10;;;;;;;0.30;0.30;;;;;;;19.36;65.90;101958.69;5115020;28;20035;-82
2023/08/11 06:04:36;;;;;;;0.15;0.15;;;;;;;19.40;66.35;101955.84;5114125;28;20545;-83
2023/08/11 06:07:03;;;;;;;0.10;0.10;;;;;;;19.47;65.83;101960.97;5114992;28;20076;-82
2023/08/11 06:09:29;;;;;;;0.22;0.22;;;;;;;19.52;65.57;101958.97;5124800;28;20040;-82
2023/08/11 06:11:55;;;;;;;0.90;0.40;;;;;;;19.58;65.95;101972.16;5134820;28;20031;-81
2023/08/11 06:14:21;;;;;;;0.63;0.40;;;;;;;19.62;66.05;101963.03;5126019;27;20039;-82
2023/08/11 06:16:47;;;;;;;0.10;0.10;;;;;;;19.70;65.68;101963.63;5123920;27;20035;-82
2023/08/11 06:19:16;;;;;;;0.10;0.10;;;;;;;19.77;65.31;101969.59;5118588;28;20524;-83
2023/08/11 06:21:42;;;;;;;0.10;0.10;;;;;;;19.83;65.48;101966.69;5117435;28;20034;-84
2023/08/11 06:24:08;;;;;;;0.10;0.10;;;;;;;19.90;65.24;101964.66;5114744;28;20106;-83
2023/08/11 06:26:35;;;;;;;2.53;0.52;;;;;;;19.98;64.99;101967.88;5118810;28;20027;-83
2023/08/11 06:29:03;;;;;;;0.20;0.20;;;;;;;20.07;64.89;101965.75;5118980;28;20089;-83
2023/08/11 06:31:30;;;;;;;0.10;0.10;;;;;;;20.14;65.02;101964.56;5116198;28;20063;-83
2023/08/11 06:33:56;;;;;;;0.13;0.13;;;;;;;20.22;64.59;101967.78;5114589;28;20027;-83
2023/08/11 06:36:22;;;;;;;0.20;0.20;;;;;;;20.29;64.54;101955.81;5115886;28;20031;-83
2023/08/11 06:38:50;;;;;;;0.10;0.10;;;;;;;20.36;64.72;101967.19;5117358;28;20385;-83
2023/08/11 06:41:16;;;;;;;0.10;0.10;;;;;;;20.41;64.73;101961.59;5119930;28;20059;-83
2023/08/11 06:43:42;;;;;;;1.73;0.80;;;;;;;20.48;64.46;101955.00;5119867;28;20023;-83
2023/08/11 06:46:08;;;;;;;0.10;0.10;;;;;;;20.55;64.43;101953.81;5119640;28;20425;-83
2023/08/11 06:48:34;;;;;;;0.10;0.10;;;;;;;20.63;64.18;101948.94;5119629;28;20478;-83
2023/08/11 06:51:00;;;;;;;0.20;0.20;;;;;;;20.69;64.27;101954.03;5118298;28;20050;-83
2023/08/11 06:53:27;;;;;;;0.40;0.40;;;;;;;20.77;64.37;101952.84;5117948;28;20501;-83
2023/08/11 06:55:53;;;;;;;0.22;0.22;;;;;;;20.83;64.25;101956.13;5119737;28;20024;-83
2023/08/11 06:58:19;;;;;;;0.10;0.10;;;;;;;20.92;64.02;101953.97;5122317;28;20098;-83
2023/08/11 07:00:45;;;;;;;0.15;0.15;;;;;;;20.99;63.98;101955.44;5122337;28;20086;-83
2023/08/11 07:03:11;;;;;;;0.10;0.10;;;;;;;21.09;63.63;101951.38;5122931;28;20035;-84
2023/08/11 07:05:37;;;;;;;0.10;0.10;;;;;;;21.16;63.57;101947.44;5120641;28;20036;-83
2023/08/11 07:08:04;;;;;;;0.20;0.20;;;;;;;21.22;63.67;101945.41;5116566;28;20035;-83
2023/08/11 07:10:30;;;;;;;0.10;0.10;;;;;;;21.33;63.39;101948.47;5122044;28;20461;-83
2023/08/11 07:12:56;;;;;;;0.63;0.63;;;;;;;21.41;63.37;101959.75;5121635;28;20060;-84
2023/08/11 07:15:22;;;;;;;0.40;0.40;;;;;;;21.52;63.31;101959.25;5120563;28;20038;-82
2023/08/11 07:17:48;;;;;;;3.55;0.30;;;;;;;21.60;63.15;101958.91;5121167;28;20035;-83
2023/08/11 07:20:14;;;;;;;0.10;0.10;;;;;;;21.73;62.79;101961.88;5119956;28;20034;-82
2023/08/11 07:22:40;;;;;;;0.65;0.50;;;;;;;21.82;62.52;101956.03;5118991;28;20027;-83
2023/08/11 07:25:07;;;;;;;0.10;0.10;;;;;;;21.92;62.51;101957.31;5116918;28;20167;-83
2023/08/11 07:27:33;;;;;;;0.10;0.10;;;;;;;22.03;62.24;101966.69;5119094;28;20102;-83
2023/08/11 07:29:59;;;;;;;0.00;0.00;;;;;;;22.09;61.79;101969.06;5119481;28;20494;-83
2023/08/11 07:32:25;;;;;;;3.92;0.63;;;;;;;22.18;61.57;101963.22;5118281;28;20054;-83
2023/08/11 07:34:51;;;;;;;0.57;0.57;;;;;;;22.31;61.33;101960.75;5118497;28;20036;-83
2023/08/11 07:37:17;;;;;;;0.20;0.20;;;;;;;22.42;61.59;101965.63;5119253;28;20054;-83
2023/08/11 07:39:43;;;;;;;0.47;0.47;;;;;;;22.49;61.36;101953.53;5119461;28;20394;-82
2023/08/11 07:42:09;;;;;;;0.10;0.10;;;;;;;22.61;61.17;101952.88;5120254;28;20117;-84
2023/08/11 07:44:35;;;;;;;0.05;0.05;;;;;;;22.68;60.30;101952.53;5119125;28;20389;-83
2023/08/11 07:47:02;;;;;;;0.17;0.17;;;;;;;22.81;59.69;101947.38;5119182;28;20035;-84
2023/08/11 07:49:28;;;;;;;0.57;0.57;;;;;;;22.91;59.44;101941.34;5121614;28;20030;-84
2023/08/11 07:51:57;;;;;;;0.10;0.10;;;;;;;23.05;59.53;101950.53;5120203;28;20072;-84
2023/08/11 07:54:24;;;;;;;0.20;0.20;;;;;;;23.14;59.11;101947.34;5126178;28;20077;-84
2023/08/11 07:56:50;;;;;;;0.30;0.30;;;;;;;23.30;59.58;101941.97;5121895;28;20084;-83
2023/08/11 07:59:17;;;;;;;0.10;0.10;;;;;;;23.41;58.91;101944.06;5120494;28;20053;-84
2023/08/11 08:01:43;;;;;;;0.00;0.00;;;;;;;23.53;58.29;101943.38;5118228;28;20402;-83
2023/08/11 08:04:10;;;;;;;0.55;0.55;;;;;;;23.67;58.09;101949.81;5116786;28;20031;-84
2023/08/11 08:06:43;;;;;;;0.32;0.32;;;;;;;23.82;57.09;101953.47;5120181;28;20041;-84
2023/08/11 08:09:11;;;;;;;0.57;0.57;;;;;;;23.98;57.15;101953.47;5120598;28;20035;-84
2023/08/11 08:11:38;;;;;;;0.10;0.10;;;;;;;24.11;57.08;101959.88;5119905;28;20024;-84
2023/08/11 08:14:05;;;;;;;0.10;0.10;;;;;;;24.29;56.50;101957.00;5120021;28;20486;-85
2023/08/11 08:16:31;;;;;;;0.15;0.15;;;;;;;24.47;55.66;101955.91;5120390;28;20077;-84
2023/08/11 08:18:57;;;;;;;0.65;0.65;;;;;;;24.68;55.71;101952.88;5119495;28;20043;-84
2023/08/11 08:21:23;;;;;;;0.25;0.25;;;;;;;24.87;54.71;101949.88;5119050;28;20031;-84
2023/08/11 08:23:49;;;;;;;0.40;0.40;;;;;;;25.07;54.08;101951.31;5120610;28;20077;-84
2023/08/11 08:26:15;;;;;;;0.17;0.17;;;;;;;25.25;53.17;101951.13;5121234;28;20031;-84
2023/08/11 08:28:41;;;;;;;0.77;0.77;;;;;;;25.32;51.35;101947.00;5121255;28;20019;-84
2023/08/11 08:31:07;;;;;;;0.55;0.55;;;;;;;25.50;52.69;101953.97;5121188;28;20020;-84
2023/08/11 08:33:33;;;;;;;0.20;0.20;;;;;;;25.51;50.64;101944.00;5116449;28;20064;-84
2023/08/11 08:35:59;;;;;;;0.20;0.20;;;;;;;25.49;49.52;101954.09;5121232;28;20042;-84
2023/08/11 08:38:25;;;;;;;0.38;0.35;;;;;;;25.65;50.08;101952.09;5118683;28;20036;-84
2023/08/11 08:40:51;;;;;;;0.00;0.00;;;;;;;25.81;50.77;101949.22;5118369;28;20035;-84
2023/08/11 08:43:18;;;;;;;0.40;0.38;;;;;;;25.94;49.96;101954.69;5119812;28;20028;-84
2023/08/11 08:45:45;;;;;;;0.40;0.40;;;;;;;25.98;49.29;101960.78;5119669;28;20043;-83
2023/08/11 08:48:21;;;;;;;0.20;0.20;;;;;;;25.98;49.79;101960.78;5120683;28;20031;-84
2023/08/11 08:50:47;;;;;;;0.35;0.35;;;;;;;25.92;49.54;101961.19;5121726;28;20390;-84
2023/08/11 08:53:13;;;;;;;1.23;1.13;;;;;;;25.98;49.79;101960.78;5118567;28;20441;-84
2023/08/11 08:55:40;;;;;;;0.10;0.10;;;;;;;26.03;50.07;101953.19;5118965;28;20030;-84
2023/08/11 08:58:09;;;;;;;0.10;0.10;;;;;;;26.04;50.18;101957.66;5118468;28;20046;-83
2023/08/11 09:00:35;;;;;;;0.55;0.55;;;;;;;26.01;49.38;101955.16;5110151;28;20020;-83
2023/08/11 09:03:03;;;;;;;0.20;0.20;;;;;;;26.05;49.37;101956.69;5117888;28;20034;-83
2023/08/11 09:05:30;;;;;;;0.10;0.10;;;;;;;26.05;49.06;101951.25;5116708;28;20083;-83
2023/08/11 09:07:56;;;;;;;0.20;0.20;;;;;;;26.12;48.23;101958.03;5117633;28;20039;-83
2023/08/11 09:10:24;;;;;;;0.10;0.10;;;;;;;26.24;49.46;101952.72;5117419;28;20031;-83
2023/08/11 09:12:51;;;;;;;0.10;0.10;;;;;;;26.39;49.81;101943.50;5134277;28;20028;-83
2023/08/11 09:15:17;;;;;;;0.13;0.13;;;;;;;26.44;48.67;101954.94;5136553;28;20032;-83
2023/08/11 09:17:43;;;;;;;0.30;0.30;;;;;;;26.53;48.05;101949.81;5119922;28;20059;-82
2023/08/11 09:20:12;;;;;;;0.30;0.30;;;;;;;26.70;48.82;101952.22;5117950;28;20465;-83
2023/08/11 09:22:39;;;;;;;0.10;0.10;;;;;;;26.76;48.37;101951.81;5119550;28;20042;-83
2023/08/11 09:25:06;;;;;;;0.10;0.10;;;;;;;26.88;49.18;101943.75;5119349;28;20084;-83
2023/08/11 09:27:32;;;;;;;0.30;0.30;;;;;;;26.94;48.17;101943.31;5119474;28;20031;-83
2023/08/11 09:29:59;;;;;;;0.20;0.20;;;;;;;27.00;48.70;101940.13;5119616;28;20035;-83
2023/08/11 09:32:25;;;;;;;0.52;0.52;;;;;;;27.02;48.28;101942.78;5119817;28;20034;-83
2023/08/11 09:34:52;;;;;;;0.10;0.10;;;;;;;27.14;48.10;101944.56;5117653;28;20043;-83
2023/08/11 09:37:18;;;;;;;0.10;0.10;;;;;;;27.20;48.50;101943.25;5115175;28;20044;-83
2023/08/11 09:39:44;;;;;;;0.22;0.22;;;;;;;27.27;47.88;101944.56;5114943;28;20028;-82
2023/08/11 09:42:11;;;;;;;0.20;0.20;;;;;;;27.34;46.78;101954.00;5115323;28;20035;-83
2023/08/11 09:44:38;;;;;;;0.10;0.10;;;;;;;27.31;46.61;101954.22;5114406;28;20032;-83
2023/08/11 09:47:04;;;;;;;0.00;0.00;;;;;;;27.35;46.45;101950.28;5114630;28;20031;-83
2023/08/11 09:49:30;;;;;;;0.20;0.20;;;;;;;27.43;47.10;101956.06;5113954;28;20055;-83
2023/08/11 09:52:04;;;;;;;0.15;0.15;;;;;;;27.43;45.98;101953.34;5097200;28;20096;-82
2023/08/11 09:54:30;;;;;;;0.10;0.10;;;;;;;27.60;47.58;101949.38;5115421;28;20102;-83
2023/08/11 09:56:57;;;;;;;0.10;0.10;;;;;;;27.70;46.47;101951.38;5110212;28;20059;-83
2023/08/11 09:59:24;;;;;;;0.10;0.10;;;;;;;27.79;46.78;101944.38;5118141;28;20024;-83
2023/08/11 10:01:54;;;;;;;0.25;0.25;;;;;;;27.97;47.70;101942.97;5117935;28;20031;-83
2023/08/11 10:04:38;;;;;;;0.05;0.05;;;;;;;28.19;47.63;101941.34;5115470;28;20114;-83
2023/08/11 10:07:09;;;;;;;0.20;0.20;;;;;;;28.31;47.54;101939.50;5119018;28;20031;-83
2023/08/11 10:09:36;;;;;;;0.80;0.80;;;;;;;28.33;47.18;101938.41;5110664;28;20026;-83
2023/08/11 10:12:05;;;;;;;0.15;0.15;;;;;;;28.28;46.48;101937.91;5118521;28;20023;-83
2023/08/11 10:14:34;;;;;;;2.50;1.13;;;;;;;28.32;47.87;101944.84;5117940;28;20098;-83
2023/08/11 10:17:01;;;;;;;0.10;0.10;;;;;;;28.36;47.82;101932.72;5118038;28;20062;-83
2023/08/11 10:19:27;;;;;;;0.20;0.20;;;;;;;28.43;46.42;101940.41;5112109;28;20024;-83
2023/08/11 10:21:54;;;;;;;0.10;0.10;;;;;;;28.44;45.47;101934.84;5117787;28;20548;-83
2023/08/11 10:24:21;;;;;;;0.10;0.10;;;;;;;28.52;45.81;101934.22;5116877;28;20027;-83
2023/08/11 10:26:48;;;;;;;0.10;0.10;;;;;;;28.64;46.41;101935.13;5116325;28;20521;-83
2023/08/11 10:29:15;;;;;;;0.10;0.10;;;;;;;28.70;46.25;101930.06;5115577;28;20023;-83
2023/08/11 10:32:01;;;;;;;0.10;0.10;;;;;;;28.84;45.33;101922.63;5113133;28;20058;-83
2023/08/11 10:34:27;;;;;;;0.68;0.63;;;;;;;28.88;45.47;101932.28;5114069;28;20043;-83
2023/08/11 10:36:55;;;;;;;0.20;0.20;;;;;;;28.92;44.74;101920.13;5114936;28;20047;-82
2023/08/11 10:39:22;;;;;;;0.40;0.40;;;;;;;28.98;44.35;101927.81;5114845;28;20028;-83
2023/08/11 10:41:49;;;;;;;0.10;0.10;;;;;;;29.09;45.68;101935.13;5114790;28;20095;-82
2023/08/11 10:44:18;;;;;;;0.00;0.00;;;;;;;29.09;44.66;101931.53;5114703;28;20023;-83
2023/08/11 10:46:46;;;;;;;0.55;0.40;;;;;;;29.13;43.61;101936.59;5114247;28;20036;-83
2023/08/11 10:51:52;;;;;;;0.10;0.10;;;;;;;29.31;44.63;101931.53;5127038;27;20384;-80
2023/08/11 10:54:25;;;;;;;1.00;1.00;;;;;;;29.46;44.45;101925.78;5105199;28;20040;-79
2023/08/11 10:56:52;;;;;;;0.10;0.10;;;;;;;29.49;43.96;101931.84;5091486;28;20025;-79
2023/08/11 10:59:24;;;;;;;0.10;0.10;;;;;;;29.57;43.79;101928.47;5089416;28;20028;-79
2023/08/11 11:01:53;;;;;;;0.90;0.85;;;;;;;29.65;43.07;101930.56;5087097;28;20059;-79
2023/08/11 11:04:22;;;;;;;0.00;0.00;;;;;;;29.74;43.56;101937.13;5084259;28;20056;-77
2023/08/11 11:06:50;;;;;;;0.15;0.15;;;;;;;29.59;42.06;101931.94;5086351;28;20382;-78
2023/08/11 11:09:17;;;;;;;0.10;0.10;;;;;;;29.74;43.13;101934.38;5086915;28;20029;-77
2023/08/11 11:11:44;;;;;;;0.73;0.73;;;;;;;29.90;43.18;101937.56;5086114;28;20035;-79
2023/08/11 11:14:12;;;;;;;0.10;0.10;;;;;;;30.11;44.52;101934.00;5085213;28;20044;-77
2023/08/11 11:16:39;;;;;;;0.10;0.10;;;;;;;30.26;42.25;101935.38;5084318;28;20103;-79
2023/08/11 11:19:07;;;;;;;0.00;0.00;;;;;;;30.47;43.39;101935.38;5086265;28;20033;-78
2023/08/11 11:21:34;;;;;;;0.00;0.00;;;;;;;30.56;40.55;101936.47;5095022;28;20072;-78
2023/08/11 11:24:00;;;;;;;0.00;0.00;;;;;;;30.76;40.66;101926.47;5084247;28;20036;-79
2023/08/11 11:26:29;;;;;;;0.00;0.00;;;;;;;30.92;40.50;101930.59;5086564;28;20040;-77